Time;durP1;ratioP1;P1;durP2;ratioP2;P2;SDS_P1;SDS_P2;PMS_P1;PMS_P2;Temp;Humidity;BMP_temperature;BMP_pressure;BME280_temperature;BME280_humidity;BME280_pressure;Samples;Min_cycle;Max_cycle;Signal;HPM_P1;HPM_P2
2021/04/24 00:00:42;;;;;;;;;;;;;;;13.12;27.89;102107.72;4886880;28;98159;-80
2021/04/24 00:03:08;;;;;;;;;;;;;;;13.25;27.59;102102.09;4884183;28;97830;-80
2021/04/24 00:05:37;;;;;;;;;;;;;;;13.23;27.67;102095.94;4877216;28;96809;-80
2021/04/24 00:08:04;;;;;;;;;;;;;;;13.01;27.93;102099.06;4888466;28;98406;-79
2021/04/24 00:10:31;;;;;;;;;;;;;;;12.86;29.16;102096.81;4890266;28;99179;-81
2021/04/24 00:12:57;;;;;;;;;;;;;;;13.12;29.69;102094.44;4883208;28;97284;-81
2021/04/24 00:15:23;;;;;;;;;;;;;;;13.02;30.87;102099.94;4885171;28;98524;-80
2021/04/24 00:17:50;;;;;;;;;;;;;;;13.24;31.41;102095.03;4886329;28;97670;-80
2021/04/24 00:20:17;;;;;;;;;;;;;;;13.44;31.27;102100.72;4884096;28;98939;-81
2021/04/24 00:22:44;;;;;;;;;;;;;;;13.07;33.19;102093.63;4895876;28;101899;-81
2021/04/24 00:25:10;;;;;;;;;;;;;;;12.98;33.60;102100.94;4870958;28;96902;-81
2021/04/24 00:27:38;;;;;;;;;;;;;;;13.01;34.02;102095.56;4878913;28;98870;-80
2021/04/24 00:30:04;;;;;;;;;;;;;;;12.85;34.44;102091.53;4877319;28;101170;-81
2021/04/24 00:32:30;;;;;;;;;;;;;;;12.70;35.21;102093.63;4880038;28;99269;-81
2021/04/24 00:34:57;;;;;;;;;;;;;;;12.78;35.24;102096.13;4882822;28;96943;-80
2021/04/24 00:37:22;;;;;;;;;;;;;;;12.72;35.82;102088.31;4880331;28;97139;-81
2021/04/24 00:39:48;;;;;;;;;;;;;;;12.58;36.18;102093.03;4878914;28;102300;-82
2021/04/24 00:42:15;;;;;;;;;;;;;;;12.60;36.50;102097.38;4880724;28;98455;-81
2021/04/24 00:44:44;;;;;;;;;;;;;;;12.67;36.44;102087.50;4883337;28;97106;-79
2021/04/24 00:47:10;;;;;;;;;;;;;;;12.47;36.97;102092.41;4889391;28;96949;-80
2021/04/24 00:49:36;;;;;;;;;;;;;;;12.67;37.05;102088.38;4884969;28;98223;-79
2021/04/24 00:52:03;;;;;;;;;;;;;;;12.22;38.17;102082.31;4887536;28;102666;-81
2021/04/24 00:54:31;;;;;;;;;;;;;;;12.13;38.38;102085.19;4880974;28;96826;-80
2021/04/24 00:56:57;;;;;;;;;;;;;;;12.27;38.37;102088.38;4889279;28;97210;-80
2021/04/24 00:59:23;;;;;;;;;;;;;;;12.18;38.75;102085.06;4879719;28;99670;-80
2021/04/24 01:01:49;;;;;;;;;;;;;;;12.19;38.92;102084.19;4890557;28;101497;-81
2021/04/24 01:04:15;;;;;;;;;;;;;;;11.63;40.06;102085.25;4889229;28;96715;-83
2021/04/24 01:06:41;;;;;;;;;;;;;;;12.16;39.34;102086.88;4888948;28;97190;-82
2021/04/24 01:09:08;;;;;;;;;;;;;;;12.17;39.37;102081.56;4896070;28;101223;-82
2021/04/24 01:11:34;;;;;;;;;;;;;;;12.37;38.98;102087.31;4879502;28;97804;-80
2021/04/24 01:13:59;;;;;;;;;;;;;;;12.46;38.98;102078.28;4895250;28;97044;-82
2021/04/24 01:16:25;;;;;;;;;;;;;;;12.67;38.78;102079.56;4912844;28;96743;-81
2021/04/24 01:18:52;;;;;;;;;;;;;;;12.26;39.45;102085.78;4906334;28;97875;-81
2021/04/24 01:21:18;;;;;;;;;;;;;;;12.07;40.20;102080.00;4911320;28;96708;-81
2021/04/24 01:23:45;;;;;;;;;;;;;;;11.89;40.40;102083.00;4911869;28;96847;-80
2021/04/24 01:26:11;;;;;;;;;;;;;;;11.74;41.11;102076.25;4908064;28;96641;-82
2021/04/24 01:28:37;;;;;;;;;;;;;;;11.93;40.75;102087.34;4894269;28;97750;-81
2021/04/24 01:31:03;;;;;;;;;;;;;;;11.94;40.69;102084.69;4882574;28;98964;-80
2021/04/24 01:33:29;;;;;;;;;;;;;;;12.12;40.24;102087.84;4887502;28;97704;-82
2021/04/24 01:35:54;;;;;;;;;;;;;;;12.17;40.47;102092.16;4880044;28;96815;-81
2021/04/24 01:38:20;;;;;;;;;;;;;;;12.30;40.21;102082.16;4878642;28;98910;-80
2021/04/24 01:40:47;;;;;;;;;;;;;;;12.17;40.69;102081.56;4879588;28;99992;-80
2021/04/24 01:43:13;;;;;;;;;;;;;;;12.20;40.64;102084.16;4887426;28;98536;-82
2021/04/24 01:45:39;;;;;;;;;;;;;;;12.12;40.76;102088.72;4887132;28;97137;-81
2021/04/24 01:48:06;;;;;;;;;;;;;;;11.57;41.60;102084.47;4887200;28;99169;-82
2021/04/24 01:50:33;;;;;;;;;;;;;;;11.49;42.47;102077.56;4879738;28;98965;-81
2021/04/24 01:53:00;;;;;;;;;;;;;;;11.50;42.35;102077.53;4879155;28;96797;-82
2021/04/24 01:55:27;;;;;;;;;;;;;;;11.76;42.19;102078.84;4880912;28;97045;-81
2021/04/24 01:57:54;;;;;;;;;;;;;;;11.36;42.76;102079.56;4880049;28;102095;-80
2021/04/24 02:00:23;;;;;;;;;;;;;;;11.66;42.02;102079.91;4881147;28;98075;-80
2021/04/24 02:02:49;;;;;;;;;;;;;;;11.61;42.21;102079.13;4883335;28;96991;-81
2021/04/24 02:05:16;;;;;;;;;;;;;;;11.40;42.90;102075.09;4878709;28;96909;-82
2021/04/24 02:07:41;;;;;;;;;;;;;;;11.80;42.06;102077.91;4871038;28;98002;-80
2021/04/24 02:10:08;;;;;;;;;;;;;;;11.84;41.91;102079.59;4873560;28;98893;-81
2021/04/24 02:12:34;;;;;;;;;;;;;;;11.50;42.70;102077.53;4882839;28;96825;-80
2021/04/24 02:15:01;;;;;;;;;;;;;;;11.35;43.49;102082.25;4881672;28;96978;-81
2021/04/24 02:17:27;;;;;;;;;;;;;;;11.44;42.71;102072.34;4882765;28;97510;-82
2021/04/24 02:19:53;;;;;;;;;;;;;;;11.32;43.15;102082.28;4888499;28;98687;-80
2021/04/24 02:22:21;;;;;;;;;;;;;;;11.39;43.16;102073.34;4873584;28;98719;-81
2021/04/24 02:24:48;;;;;;;;;;;;;;;11.13;43.51;102069.38;4877928;28;97245;-82
2021/04/24 02:27:14;;;;;;;;;;;;;;;11.35;43.13;102072.53;4886250;28;101034;-81
2021/04/24 02:29:41;;;;;;;;;;;;;;;11.56;42.97;102071.25;4889978;28;98742;-80
2021/04/24 02:32:09;;;;;;;;;;;;;;;11.38;43.39;102061.00;4888828;28;97635;-80
2021/04/24 02:34:36;;;;;;;;;;;;;;;11.57;42.85;102067.72;4885389;28;96881;-81
2021/04/24 02:37:05;;;;;;;;;;;;;;;11.04;44.32;102058.06;4879422;28;100479;-82
2021/04/24 02:39:32;;;;;;;;;;;;;;;11.13;44.16;102072.03;4878477;28;100022;-80
2021/04/24 02:41:58;;;;;;;;;;;;;;;11.32;43.83;102067.28;4860668;28;98214;-80
2021/04/24 02:44:33;;;;;;;;;;;;;;;11.66;43.03;102069.31;4861958;28;97509;-82
2021/04/24 02:47:01;;;;;;;;;;;;;;;11.29;43.76;102069.97;4881389;28;99902;-80
2021/04/24 02:49:34;;;;;;;;;;;;;;;11.22;44.03;102062.19;4855470;28;98483;-82
2021/04/24 02:52:02;;;;;;;;;;;;;;;10.83;44.94;102066.38;4878121;28;96701;-81
2021/04/24 02:54:29;;;;;;;;;;;;;;;11.26;44.00;102067.41;4874325;28;96948;-82
2021/04/24 02:56:55;;;;;;;;;;;;;;;10.78;45.07;102058.47;4878563;28;101878;-80
2021/04/24 02:59:21;;;;;;;;;;;;;;;11.42;43.84;102054.78;4880106;28;98091;-82
2021/04/24 03:01:57;;;;;;;;;;;;;;;11.00;44.21;102061.66;4881894;28;98882;-81
2021/04/24 03:04:24;;;;;;;;;;;;;;;10.81;45.00;102057.56;4863364;28;99103;-81
2021/04/24 03:06:55;;;;;;;;;;;;;;;11.27;44.16;102065.63;4878070;28;98274;-82
2021/04/24 03:09:21;;;;;;;;;;;;;;;10.83;44.74;102061.09;4884789;28;98053;-81
2021/04/24 03:11:51;;;;;;;;;;;;;;;10.93;45.07;102063.53;4870591;28;97084;-82
2021/04/24 03:14:31;;;;;;;;;;;;;;;11.07;44.57;102058.91;4884892;28;98757;-82
2021/04/24 03:17:11;;;;;;;;;;;;;;;10.93;44.61;102062.66;4884551;28;98668;-83
2021/04/24 03:19:46;;;;;;;;;;;;;;;10.98;45.09;102061.69;4875623;28;98021;-83
2021/04/24 03:22:29;;;;;;;;;;;;;;;11.16;44.13;102055.22;4871621;28;97395;-82
2021/04/24 03:25:10;;;;;;;;;;;;;;;10.67;45.32;102061.31;4864720;28;97270;-81
2021/04/24 03:27:38;;;;;;;;;;;;;;;11.12;44.49;102053.53;4878357;28;98006;-82
2021/04/24 03:30:10;;;;;;;;;;;;;;;11.03;44.66;102056.31;4866277;28;98187;-82
2021/04/24 03:32:42;;;;;;;;;;;;;;;11.06;44.21;102054.50;4887252;28;97986;-82
2021/04/24 03:35:11;;;;;;;;;;;;;;;11.11;44.65;102062.34;4880086;28;97539;-81
2021/04/24 03:37:47;;;;;;;;;;;;;;;11.19;44.29;102058.69;4860889;28;97688;-81
2021/04/24 03:40:14;;;;;;;;;;;;;;;10.94;44.46;102053.84;4877851;28;98129;-82
2021/04/24 03:42:41;;;;;;;;;;;;;;;10.85;45.22;102053.97;4862184;28;96945;-81
2021/04/24 03:45:21;;;;;;;;;;;;;;;11.05;44.74;102051.88;4873406;28;96916;-81
2021/04/24 03:47:48;;;;;;;;;;;;;;;10.89;44.93;102060.97;4876061;28;98407;-80
2021/04/24 03:50:14;;;;;;;;;;;;;;;10.89;44.97;102066.28;4888839;28;96901;-81
2021/04/24 03:52:40;;;;;;;;;;;;;;;10.74;45.15;102062.97;4883965;28;96757;-80
2021/04/24 03:55:06;;;;;;;;;;;;;;;10.94;44.85;102064.41;4879053;28;96955;-81
2021/04/24 03:57:32;;;;;;;;;;;;;;;10.46;45.89;102061.59;4889575;28;98460;-81
2021/04/24 03:59:59;;;;;;;;;;;;;;;10.68;45.84;102064.81;4888332;28;98695;-80
2021/04/24 04:02:28;;;;;;;;;;;;;;;10.96;44.90;102067.91;4879726;28;96922;-81
2021/04/24 04:04:53;;;;;;;;;;;;;;;10.82;45.08;102060.19;4874351;28;96900;-81
2021/04/24 04:07:19;;;;;;;;;;;;;;;11.18;44.68;102064.88;4875809;28;97790;-81
2021/04/24 04:09:45;;;;;;;;;;;;;;;10.70;45.50;102071.81;4882601;28;97733;-81
2021/04/24 04:12:11;;;;;;;;;;;;;;;11.02;44.47;102067.81;4883634;28;97740;-80
2021/04/24 04:14:37;;;;;;;;;;;;;;;10.90;44.95;102068.88;4884435;28;97957;-80
2021/04/24 04:17:04;;;;;;;;;;;;;;;11.04;44.84;102066.88;4885174;28;98970;-82
2021/04/24 04:19:30;;;;;;;;;;;;;;;11.01;44.88;102063.44;4882253;28;101672;-81
2021/04/24 04:21:56;;;;;;;;;;;;;;;11.27;44.21;102061.22;4876425;28;96941;-82
2021/04/24 04:24:21;;;;;;;;;;;;;;;10.84;45.08;102074.25;4877006;28;96850;-82
2021/04/24 04:26:47;;;;;;;;;;;;;;;11.03;44.75;102075.69;4893119;28;100270;-82
2021/04/24 04:29:13;;;;;;;;;;;;;;;11.09;44.64;102072.13;4890763;28;98184;-82
2021/04/24 04:31:39;;;;;;;;;;;;;;;11.10;44.73;102074.72;4870477;28;97900;-81
2021/04/24 04:34:06;;;;;;;;;;;;;;;10.43;46.38;102082.81;4882869;28;97056;-81
2021/04/24 04:36:32;;;;;;;;;;;;;;;10.54;46.10;102095.88;4885569;28;100551;-82
2021/04/24 04:38:57;;;;;;;;;;;;;;;10.71;45.54;102088.56;4885870;28;98756;-81
2021/04/24 04:41:23;;;;;;;;;;;;;;;10.80;45.64;102093.72;4886325;28;97317;-81
2021/04/24 04:43:49;;;;;;;;;;;;;;;11.13;45.08;102094.97;4888884;28;96969;-83
2021/04/24 04:46:15;;;;;;;;;;;;;;;10.90;45.48;102094.44;4886603;28;101811;-80
2021/04/24 04:48:40;;;;;;;;;;;;;;;10.91;45.42;102093.53;4888686;28;97758;-82
2021/04/24 04:51:07;;;;;;;;;;;;;;;10.85;45.82;102094.50;4888374;28;97677;-82
2021/04/24 04:53:33;;;;;;;;;;;;;;;10.98;45.46;102096.06;4882569;28;96878;-80
2021/04/24 04:55:59;;;;;;;;;;;;;;;11.03;45.28;102101.28;4889732;28;97857;-82
2021/04/24 04:58:25;;;;;;;;;;;;;;;11.42;44.71;102105.06;4881191;28;99146;-83
2021/04/24 05:00:51;;;;;;;;;;;;;;;11.18;45.18;102106.34;4899268;28;96776;-82
2021/04/24 05:03:17;;;;;;;;;;;;;;;11.38;44.69;102104.22;4885729;28;96928;-81
2021/04/24 05:05:43;;;;;;;;;;;;;;;11.53;44.11;102096.03;4887015;28;101974;-79
2021/04/24 05:08:09;;;;;;;;;;;;;;;11.41;44.23;102112.13;4887271;28;98913;-79
2021/04/24 05:10:35;;;;;;;;;;;;;;;11.05;45.08;102110.94;4887592;28;97167;-80
2021/04/24 05:13:01;;;;;;;;;;;;;;;11.33;45.03;102106.09;4882299;28;96847;-81
2021/04/24 05:15:27;;;;;;;;;;;;;;;11.01;45.73;102111.91;4909135;28;98204;-80
2021/04/24 05:17:53;;;;;;;;;;;;;;;11.19;45.27;102102.78;4896975;28;101523;-80
2021/04/24 05:20:19;;;;;;;;;;;;;;;11.70;44.11;102106.28;4896782;28;96756;-80
2021/04/24 05:22:45;;;;;;;;;;;;;;;11.25;44.70;102101.81;4883615;28;96858;-81
2021/04/24 05:25:13;;;;;;;;;;;;;;;10.96;45.66;102115.53;4892837;28;97860;-80
2021/04/24 05:27:43;;;;;;;;;;;;;;;11.27;45.01;102113.25;4898382;28;98742;-80
2021/04/24 05:30:09;;;;;;;;;;;;;;;11.12;45.80;102117.00;4899940;28;96586;-82
2021/04/24 05:32:35;;;;;;;;;;;;;;;11.49;44.71;102111.97;4906170;28;96640;-80
2021/04/24 05:35:01;;;;;;;;;;;;;;;11.94;43.74;102116.47;4901563;28;97763;-81
2021/04/24 05:37:27;;;;;;;;;;;;;;;11.57;44.37;102116.22;4900075;28;97819;-81
2021/04/24 05:39:53;;;;;;;;;;;;;;;11.86;43.90;102120.16;4887831;28;97216;-81
2021/04/24 05:42:20;;;;;;;;;;;;;;;11.32;44.89;102122.84;4883993;28;97215;-81
2021/04/24 05:45:11;;;;;;;;;;;;;;;11.66;44.50;102120.50;4895383;28;99722;-79
2021/04/24 05:47:37;;;;;;;;;;;;;;;11.92;43.98;102126.22;4890989;28;99572;-81
2021/04/24 05:50:04;;;;;;;;;;;;;;;11.31;45.23;102120.22;4897372;28;96869;-81
2021/04/24 05:52:30;;;;;;;;;;;;;;;10.97;46.41;102126.06;4886112;28;97815;-82
2021/04/24 05:54:55;;;;;;;;;;;;;;;11.14;45.88;102131.09;4895853;28;98234;-82
2021/04/24 05:57:22;;;;;;;;;;;;;;;11.23;45.47;102125.63;4888844;28;98140;-81
2021/04/24 05:59:48;;;;;;;;;;;;;;;11.63;44.59;102131.13;4892459;28;96859;-81
2021/04/24 06:02:14;;;;;;;;;;;;;;;11.90;44.43;102129.78;4876636;28;98437;-82
2021/04/24 06:04:39;;;;;;;;;;;;;;;12.11;43.40;102134.66;4877091;28;97812;-82
2021/04/24 06:07:05;;;;;;;;;;;;;;;12.16;43.49;102138.09;4874143;28;97461;-81
2021/04/24 06:09:31;;;;;;;;;;;;;;;11.98;43.91;102138.47;4872810;28;98814;-81
2021/04/24 06:11:57;;;;;;;;;;;;;;;10.90;46.52;102150.84;4878273;28;97814;-83
2021/04/24 06:14:23;;;;;;;;;;;;;;;11.27;46.12;102145.88;4877695;28;99276;-81
2021/04/24 06:16:52;;;;;;;;;;;;;;;11.30;46.13;102150.22;4881075;28;97716;-81
2021/04/24 06:19:19;;;;;;;;;;;;;;;11.10;46.15;102147.91;4881942;28;96874;-80
2021/04/24 06:21:45;;;;;;;;;;;;;;;12.02;44.37;102145.44;4880621;28;97244;-81
2021/04/24 06:24:11;;;;;;;;;;;;;;;11.97;44.22;102142.88;4875463;28;98443;-81
2021/04/24 06:26:37;;;;;;;;;;;;;;;12.59;42.99;102143.41;4885826;28;98808;-81
2021/04/24 06:29:03;;;;;;;;;;;;;;;12.26;43.57;102144.97;4878905;28;97127;-80
2021/04/24 06:31:29;;;;;;;;;;;;;;;11.25;45.94;102145.03;4877995;28;98621;-80
2021/04/24 06:34:11;;;;;;;;;;;;;;;11.40;45.89;102144.78;4885198;28;99398;-82
2021/04/24 06:36:37;;;;;;;;;;;;;;;12.04;44.59;102148.06;4877681;28;101830;-81
2021/04/24 06:39:05;;;;;;;;;;;;;;;12.43;43.47;102149.03;4876510;28;97363;-79
2021/04/24 06:41:31;;;;;;;;;;;;;;;12.85;42.52;102140.16;4877226;28;97648;-81
2021/04/24 06:43:58;;;;;;;;;;;;;;;13.31;41.26;102141.75;4874167;28;99007;-83
2021/04/24 06:46:24;;;;;;;;;;;;;;;13.64;40.42;102137.38;4878294;28;100185;-82
2021/04/24 06:48:50;;;;;;;;;;;;;;;13.26;41.49;102138.34;4877473;28;96992;-81
2021/04/24 06:51:19;;;;;;;;;;;;;;;13.38;40.95;102140.69;4874795;28;97388;-81
2021/04/24 06:53:45;;;;;;;;;;;;;;;13.08;41.62;102143.13;4877597;28;99227;-80
2021/04/24 06:59:07;;;;;;;;;;;;;;;13.56;41.01;102145.53;4861307;28;97567;-84
2021/04/24 07:01:33;;;;;;;;;;;;;;;13.97;39.83;102139.13;4879501;28;97297;-82
2021/04/24 07:04:00;;;;;;;;;;;;;;;14.09;39.83;102140.56;4876212;28;98927;-82
2021/04/24 07:06:26;;;;;;;;;;;;;;;14.13;39.60;102143.09;4881029;28;101818;-82
2021/04/24 07:08:52;;;;;;;;;;;;;;;14.26;39.43;102135.63;4883789;28;96684;-81
2021/04/24 07:11:18;;;;;;;;;;;;;;;14.74;38.18;102136.88;4892445;28;97117;-83
2021/04/24 07:13:47;;;;;;;;;;;;;;;14.29;39.07;102133.78;4898560;28;96977;-83
2021/04/24 07:16:13;;;;;;;;;;;;;;;14.47;38.78;102131.50;4894111;28;98921;-83
2021/04/24 07:18:43;;;;;;;;;;;;;;;14.83;37.79;102134.84;4883354;28;97281;-82
2021/04/24 07:21:10;;;;;;;;;;;;;;;14.96;37.80;102130.88;4885876;28;96820;-83
2021/04/24 07:23:37;;;;;;;;;;;;;;;15.11;37.63;102125.06;4885848;28;100446;-83
2021/04/24 07:26:18;;;;;;;;;;;;;;;15.09;37.43;102129.56;4879709;28;100182;-82
2021/04/24 07:28:44;;;;;;;;;;;;;;;15.00;37.23;102137.84;4884887;28;97478;-82
2021/04/24 07:31:12;;;;;;;;;;;;;;;15.87;35.81;102128.69;4891742;28;97059;-83
2021/04/24 07:33:38;;;;;;;;;;;;;;;15.90;35.74;102128.56;4881736;28;100302;-82
2021/04/24 07:36:05;;;;;;;;;;;;;;;16.38;34.88;102130.38;4887906;28;101196;-81
2021/04/24 07:38:32;;;;;;;;;;;;;;;17.57;32.43;102120.25;4891112;28;96933;-83
2021/04/24 07:40:58;;;;;;;;;;;;;;;16.41;34.08;102137.41;4880330;28;97186;-82
2021/04/24 07:43:23;;;;;;;;;;;;;;;16.04;34.70;102129.88;4869850;28;101022;-81
2021/04/24 07:45:50;;;;;;;;;;;;;;;16.34;34.45;102126.09;4882167;28;98240;-82
2021/04/24 07:48:19;;;;;;;;;;;;;;;15.92;34.98;102134.72;4875542;28;96914;-84
2021/04/24 07:50:46;;;;;;;;;;;;;;;15.86;35.31;102136.75;4871073;28;97282;-81
2021/04/24 07:53:15;;;;;;;;;;;;;;;16.04;34.86;102125.41;4879317;28;98586;-82
2021/04/24 07:55:42;;;;;;;;;;;;;;;15.72;35.46;102147.00;4878581;28;98495;-81
2021/04/24 07:58:08;;;;;;;;;;;;;;;15.83;35.11;102134.16;4879986;28;98387;-82
2021/04/24 08:00:35;;;;;;;;;;;;;;;15.90;35.34;102133.03;4880947;28;96823;-83
2021/04/24 08:03:01;;;;;;;;;;;;;;;15.77;35.08;102137.91;4888477;28;97844;-83
2021/04/24 08:05:32;;;;;;;;;;;;;;;15.78;35.18;102134.34;4883600;28;100097;-82
2021/04/24 08:08:13;;;;;;;;;;;;;;;15.74;35.05;102134.50;4884452;28;96918;-82
2021/04/24 08:10:39;;;;;;;;;;;;;;;15.73;34.89;102144.28;4889749;28;99102;-81
2021/04/24 08:13:06;;;;;;;;;;;;;;;15.10;35.94;102133.94;4882066;28;99397;-81
2021/04/24 08:15:39;;;;;;;;;;;;;;;15.58;34.69;102131.50;4875839;28;100223;-83
2021/04/24 08:18:05;;;;;;;;;;;;;;;15.44;34.98;102129.25;4883270;28;96891;-84
2021/04/24 08:20:31;;;;;;;;;;;;;;;15.87;33.95;102133.16;4887114;28;97137;-84
2021/04/24 08:22:57;;;;;;;;;;;;;;;15.09;34.76;102130.44;4885195;28;99960;-86
2021/04/24 08:25:32;;;;;;;;;;;;;;;14.91;35.01;102125.69;4884975;28;99141;-82
2021/04/24 08:27:58;;;;;;;;;;;;;;;14.93;35.09;102126.53;4887541;28;97270;-82
2021/04/24 08:30:26;;;;;;;;;;;;;;;15.44;34.56;102128.38;4886061;28;97901;-82
2021/04/24 08:32:52;;;;;;;;;;;;;;;16.12;33.45;102131.34;4878025;28;98167;-82
2021/04/24 08:35:37;;;;;;;;;;;;;;;16.18;32.91;102133.78;4889434;28;101936;-81
2021/04/24 08:38:03;;;;;;;;;;;;;;;15.91;33.95;102135.66;4885969;28;97142;-82
2021/04/24 08:40:29;;;;;;;;;;;;;;;15.88;33.94;102129.56;4886720;28;97319;-84
2021/04/24 08:42:56;;;;;;;;;;;;;;;16.38;32.47;102129.50;4895932;28;101303;-81
2021/04/24 08:45:31;;;;;;;;;;;;;;;17.22;31.09;102130.59;4883655;28;97484;-82
2021/04/24 08:48:03;;;;;;;;;;;;;;;17.30;30.79;102130.28;4884628;28;98768;-83
2021/04/24 08:50:30;;;;;;;;;;;;;;;17.06;31.36;102138.41;4887902;28;96948;-82
2021/04/24 08:52:56;;;;;;;;;;;;;;;16.72;30.74;102122.84;4883833;28;101250;-84
2021/04/24 08:55:24;;;;;;;;;;;;;;;16.26;31.13;102112.16;4877255;28;98892;-83
2021/04/24 08:57:54;;;;;;;;;;;;;;;16.10;31.26;102126.97;4876282;28;97135;-83
2021/04/24 09:00:28;;;;;;;;;;;;;;;15.68;31.74;102127.59;4876356;28;97676;-84
2021/04/24 09:02:56;;;;;;;;;;;;;;;14.53;33.16;102126.88;4879701;28;97279;-83
2021/04/24 09:05:23;;;;;;;;;;;;;;;13.67;35.42;102132.84;4881056;28;99185;-82
2021/04/24 09:07:56;;;;;;;;;;;;;;;14.00;34.07;102119.53;4871756;28;97500;-82
2021/04/24 09:10:23;;;;;;;;;;;;;;;14.49;33.11;102135.88;4867921;28;97314;-84
2021/04/24 09:12:50;;;;;;;;;;;;;;;15.42;32.29;102131.13;4880116;28;101288;-84
2021/04/24 09:15:20;;;;;;;;;;;;;;;17.10;29.75;102129.31;4881322;28;98467;-85
2021/04/24 09:17:49;;;;;;;;;;;;;;;16.05;30.93;102127.16;4884880;28;96872;-83
2021/04/24 09:20:15;;;;;;;;;;;;;;;15.53;31.94;102129.00;4873859;28;97162;-83
2021/04/24 09:22:41;;;;;;;;;;;;;;;13.92;35.27;102123.28;4875553;28;99927;-83
2021/04/24 09:25:08;;;;;;;;;;;;;;;15.09;33.60;102132.25;4888357;28;97896;-83
2021/04/24 09:27:44;;;;;;;;;;;;;;;15.51;32.35;102124.59;4894925;28;97609;-83
2021/04/24 09:30:27;;;;;;;;;;;;;;;;;;;;;
2021/04/24 09:32:54;;;;;;;;;;;;;;;16.23;31.62;102130.94;4880311;28;127263;-83
2021/04/24 09:38:27;;;;;;;;;;;;;;;16.34;30.81;102134.09;4871967;28;97198;-81
2021/04/24 09:41:06;;;;;;;;;;;;;;;16.94;30.47;102125.50;4880324;28;97255;-82
2021/04/24 09:43:53;;;;;;;;;;;;;;;16.79;30.76;102139.50;4874774;28;101613;-81
2021/04/24 09:46:20;;;;;;;;;;;;;;;15.84;31.79;102123.47;4876983;28;101472;-82
2021/04/24 09:48:49;;;;;;;;;;;;;;;15.33;32.95;102123.44;4878118;28;97852;-84
2021/04/24 09:51:16;;;;;;;;;;;;;;;15.62;32.27;102121.63;4877265;28;98211;-84
2021/04/24 09:54:07;;;;;;;;;;;;;;;16.23;31.04;102122.94;4881084;28;98903;-83
2021/04/24 09:56:34;;;;;;;;;;;;;;;15.53;31.89;102126.34;4872559;28;102840;-84
2021/04/24 09:59:13;;;;;;;;;;;;;;;15.99;31.35;102116.72;4881021;28;96826;-83
2021/04/24 10:01:41;;;;;;;;;;;;;;;16.80;30.31;102122.53;4873997;28;97975;-82
2021/04/24 10:04:10;;;;;;;;;;;;;;;16.05;31.37;102121.81;4881702;28;98009;-84
2021/04/24 10:06:37;;;;;;;;;;;;;;;15.41;32.39;102123.19;4890310;28;100646;-83
2021/04/24 10:09:10;;;;;;;;;;;;;;;15.55;32.45;102126.28;4890504;28;98915;-82
2021/04/24 10:11:38;;;;;;;;;;;;;;;15.86;31.95;102120.75;4883311;28;97411;-83
2021/04/24 10:14:05;;;;;;;;;;;;;;;15.46;31.96;102122.09;4885405;28;99653;-82
2021/04/24 10:16:34;;;;;;;;;;;;;;;15.93;31.29;102122.28;4885256;28;97787;-80
2021/04/24 10:19:00;;;;;;;;;;;;;;;16.33;30.37;102119.88;4885944;28;96835;-82
2021/04/24 10:21:52;;;;;;;;;;;;;;;16.79;29.74;102117.25;4893398;28;97898;-81
2021/04/24 10:24:18;;;;;;;;;;;;;;;16.47;29.62;102123.81;4882558;28;98818;-83
2021/04/24 10:26:45;;;;;;;;;;;;;;;16.96;28.84;102115.66;4886923;28;98025;-80
2021/04/24 10:29:11;;;;;;;;;;;;;;;16.31;29.58;102116.38;4883326;28;98618;-82
2021/04/24 10:32:01;;;;;;;;;;;;;;;16.53;29.53;102124.47;4877935;28;98530;-82
2021/04/24 10:34:26;;;;;;;;;;;;;;;17.28;28.21;102116.13;4871485;28;99228;-80
2021/04/24 10:36:53;;;;;;;;;;;;;;;16.62;28.68;102126.78;4869949;28;98720;-79
2021/04/24 10:39:20;;;;;;;;;;;;;;;16.64;28.43;102122.28;4874316;28;99119;-81
2021/04/24 10:41:49;;;;;;;;;;;;;;;16.12;28.80;102112.66;4877771;28;98374;-82
2021/04/24 10:44:16;;;;;;;;;;;;;;;16.13;29.04;102109.09;4876369;28;100806;-81
2021/04/24 10:46:46;;;;;;;;;;;;;;;15.92;29.28;102109.84;4879382;28;98716;-84
2021/04/24 10:49:30;;;;;;;;;;;;;;;15.24;30.14;102110.41;4881737;28;96903;-83
2021/04/24 10:52:07;;;;;;;;;;;;;;;15.93;29.74;102111.59;4872756;28;97105;-82
2021/04/24 10:54:34;;;;;;;;;;;;;;;16.13;28.03;102110.88;4890807;28;98012;-82
2021/04/24 10:57:02;;;;;;;;;;;;;;;16.08;27.88;102110.19;4887228;28;100433;-82
2021/04/24 10:59:51;;;;;;;;;;;;;;;16.87;26.89;102104.47;4896014;28;96653;-82
2021/04/24 11:02:17;;;;;;;;;;;;;;;15.40;29.18;102098.34;4900732;28;98261;-81
2021/04/24 11:04:45;;;;;;;;;;;;;;;15.89;28.84;102104.63;4894063;28;97814;-82
2021/04/24 11:07:18;;;;;;;;;;;;;;;16.39;28.08;102105.44;4890558;28;100831;-84
2021/04/24 11:09:47;;;;;;;;;;;;;;;16.09;28.36;102107.44;4890478;28;98680;-81
2021/04/24 11:12:13;;;;;;;;;;;;;;;17.09;26.92;102097.31;4876280;28;97373;-81
2021/04/24 11:14:42;;;;;;;;;;;;;;;17.38;26.54;102098.78;4868719;28;99380;-80
2021/04/24 11:17:11;;;;;;;;;;;;;;;17.23;26.98;102104.75;4871687;28;97912;-80
2021/04/24 11:19:40;;;;;;;;;;;;;;;16.81;27.64;102104.69;4875242;28;96835;-81
2021/04/24 11:22:21;;;;;;;;;;;;;;;15.94;29.12;102100.91;4876960;28;97644;-80
2021/04/24 11:24:47;;;;;;;;;;;;;;;16.97;27.74;102097.81;4874974;28;100331;-79
2021/04/24 11:27:13;;;;;;;;;;;;;;;17.10;27.78;102107.06;4870471;28;98899;-81
2021/04/24 11:29:40;;;;;;;;;;;;;;;15.07;30.58;102103.00;4867576;28;97282;-80
2021/04/24 11:32:08;;;;;;;;;;;;;;;15.26;30.47;102107.72;4877660;28;98439;-80
2021/04/24 11:34:49;;;;;;;;;;;;;;;15.25;29.94;102104.16;4868333;28;100927;-79
2021/04/24 11:37:26;;;;;;;;;;;;;;;16.98;27.24;102105.78;4874669;28;102312;-80
2021/04/24 11:40:11;;;;;;;;;;;;;;;17.57;26.21;102098.88;4872861;28;98188;-81
2021/04/24 11:42:48;;;;;;;;;;;;;;;17.90;25.52;102097.41;4876730;28;96993;-82
2021/04/24 11:45:15;;;;;;;;;;;;;;;18.28;24.78;102101.03;4873688;28;99485;-80
2021/04/24 11:47:50;;;;;;;;;;;;;;;17.37;25.74;102091.69;4880597;28;101163;-83
2021/04/24 11:50:19;;;;;;;;;;;;;;;17.26;26.08;102094.84;4872602;28;97299;-81
2021/04/24 11:52:53;;;;;;;;;;;;;;;17.34;25.99;102095.34;4875477;28;97174;-80
2021/04/24 11:55:19;;;;;;;;;;;;;;;16.17;27.16;102101.81;4876497;28;101233;-81
2021/04/24 11:57:46;;;;;;;;;;;;;;;16.21;27.16;102096.31;4874920;28;99898;-79
2021/04/24 12:00:14;;;;;;;;;;;;;;;16.14;27.88;102093.97;4879826;28;97421;-79
2021/04/24 12:02:46;;;;;;;;;;;;;;;15.45;29.39;102104.38;4873994;28;96980;-80
2021/04/24 12:05:13;;;;;;;;;;;;;;;15.67;28.94;102093.88;4876111;28;98564;-80
2021/04/24 12:07:39;;;;;;;;;;;;;;;15.04;29.66;102099.53;4879443;28;97127;-80
2021/04/24 12:10:06;;;;;;;;;;;;;;;15.33;29.54;102093.25;4885542;28;97237;-81
2021/04/24 12:12:34;;;;;;;;;;;;;;;15.78;29.06;102097.03;4879933;28;97204;-81
2021/04/24 12:15:08;;;;;;;;;;;;;;;16.56;27.80;102094.97;4876969;28;98725;-79
2021/04/24 12:17:35;;;;;;;;;;;;;;;16.29;28.33;102099.56;4872802;28;97758;-82
2021/04/24 12:20:01;;;;;;;;;;;;;;;16.56;28.07;102096.75;4871160;28;97098;-80
2021/04/24 12:22:27;;;;;;;;;;;;;;;15.40;28.35;102085.03;4878292;28;97374;-81
2021/04/24 12:24:57;;;;;;;;;;;;;;;16.62;26.55;102084.09;4873767;28;99150;-80
2021/04/24 12:27:24;;;;;;;;;;;;;;;15.97;27.13;102086.56;4881296;28;101296;-81
2021/04/24 12:29:51;;;;;;;;;;;;;;;15.27;27.98;102083.69;4880818;28;99011;-80
2021/04/24 12:32:19;;;;;;;;;;;;;;;16.19;28.18;102090.19;4872640;28;98645;-79
2021/04/24 12:34:45;;;;;;;;;;;;;;;16.71;27.86;102082.84;4873927;28;98247;-81
2021/04/24 12:37:15;;;;;;;;;;;;;;;16.36;28.17;102078.84;4869186;28;97946;-81
2021/04/24 12:39:41;;;;;;;;;;;;;;;16.92;27.21;102079.34;4876743;28;97643;-82
2021/04/24 12:42:09;;;;;;;;;;;;;;;17.52;26.23;102083.88;4877446;28;97488;-80
2021/04/24 12:44:35;;;;;;;;;;;;;;;17.58;25.99;102079.22;4869283;28;97917;-79
2021/04/24 12:47:01;;;;;;;;;;;;;;;17.97;25.45;102081.97;4875654;28;99112;-80